sensor_id;sensor_type;location;lat;lon;timestamp;pressure;altitude;pressure_sealevel;temperature;humidity
76551;BME280;65393;53.160;18.170;2023-02-24T00:01:58;100433.63;;;5.59;83.48
76551;BME280;65393;53.160;18.170;2023-02-24T00:06:58;100423.73;;;5.60;83.41
76551;BME280;65393;53.160;18.170;2023-02-24T00:09:26;100421.63;;;5.60;83.54
76551;BME280;65393;53.160;18.170;2023-02-24T00:11:59;100414.76;;;5.61;83.28
76551;BME280;65393;53.160;18.170;2023-02-24T00:14:29;100412.64;;;5.61;83.60
76551;BME280;65393;53.160;18.170;2023-02-24T00:16:56;100409.98;;;5.61;83.45
76551;BME280;65393;53.160;18.170;2023-02-24T00:19:28;100410.32;;;5.62;84.04
76551;BME280;65393;53.160;18.170;2023-02-24T00:21:58;100404.85;;;5.62;83.60
76551;BME280;65393;53.160;18.170;2023-02-24T00:24:26;100406.64;;;5.61;83.90
76551;BME280;65393;53.160;18.170;2023-02-24T00:26:55;100399.42;;;5.61;84.20
76551;BME280;65393;53.160;18.170;2023-02-24T00:29:23;100400.33;;;5.60;83.88
76551;BME280;65393;53.160;18.170;2023-02-24T00:31:53;100399.62;;;5.60;83.95
76551;BME280;65393;53.160;18.170;2023-02-24T00:34:29;100400.35;;;5.59;84.53
76551;BME280;65393;53.160;18.170;2023-02-24T00:36:57;100396.33;;;5.59;84.48
76551;BME280;65393;53.160;18.170;2023-02-24T00:39:24;100389.77;;;5.60;84.20
76551;BME280;65393;53.160;18.170;2023-02-24T00:41:56;100386.23;;;5.61;84.41
76551;BME280;65393;53.160;18.170;2023-02-24T00:44:32;100382.91;;;5.60;84.37
76551;BME280;65393;53.160;18.170;2023-02-24T00:47:00;100383.27;;;5.60;84.20
76551;BME280;65393;53.160;18.170;2023-02-24T00:49:28;100375.20;;;5.59;84.24
76551;BME280;65393;53.160;18.170;2023-02-24T00:51:57;100375.55;;;5.59;84.20
76551;BME280;65393;53.160;18.170;2023-02-24T00:54:24;100374.69;;;5.59;84.33
76551;BME280;65393;53.160;18.170;2023-02-24T00:56:54;100373.81;;;5.58;84.69
76551;BME280;65393;53.160;18.170;2023-02-24T00:59:21;100370.80;;;5.59;84.16
76551;BME280;65393;53.160;18.170;2023-02-24T01:01:49;100369.38;;;5.59;84.28
76551;BME280;65393;53.160;18.170;2023-02-24T01:04:17;100369.37;;;5.60;84.41
76551;BME280;65393;53.160;18.170;2023-02-24T01:06:47;100372.33;;;5.60;84.54
76551;BME280;65393;53.160;18.170;2023-02-24T01:09:19;100368.27;;;5.61;85.77
76551;BME280;65393;53.160;18.170;2023-02-24T01:11:47;100372.30;;;5.61;85.41
76551;BME280;65393;53.160;18.170;2023-02-24T01:14:45;100372.65;;;5.61;86.48
76551;BME280;65393;53.160;18.170;2023-02-24T01:17:14;100371.80;;;5.60;86.62
76551;BME280;65393;53.160;18.170;2023-02-24T01:19:43;100365.84;;;5.60;86.50
76551;BME280;65393;53.160;18.170;2023-02-24T01:22:13;100364.77;;;5.60;85.96
76551;BME280;65393;53.160;18.170;2023-02-24T01:24:42;100362.10;;;5.61;85.85
76551;BME280;65393;53.160;18.170;2023-02-24T01:27:11;100358.98;;;5.60;86.25
76551;BME280;65393;53.160;18.170;2023-02-24T01:29:38;100353.34;;;5.60;85.73
76551;BME280;65393;53.160;18.170;2023-02-24T01:32:06;100351.02;;;5.61;85.60
76551;BME280;65393;53.160;18.170;2023-02-24T01:34:33;100352.23;;;5.61;85.80
76551;BME280;65393;53.160;18.170;2023-02-24T01:37:00;100346.26;;;5.61;85.72
76551;BME280;65393;53.160;18.170;2023-02-24T01:39:27;100341.67;;;5.62;85.23
76551;BME280;65393;53.160;18.170;2023-02-24T01:41:54;100334.80;;;5.62;85.03
76551;BME280;65393;53.160;18.170;2023-02-24T01:46:51;100334.44;;;5.62;84.95
76551;BME280;65393;53.160;18.170;2023-02-24T01:49:31;100330.91;;;5.63;85.07
76551;BME280;65393;53.160;18.170;2023-02-24T01:52:11;100324.74;;;5.63;85.14
76551;BME280;65393;53.160;18.170;2023-02-24T01:54:44;100318.92;;;5.63;85.24
76551;BME280;65393;53.160;18.170;2023-02-24T01:57:15;100321.05;;;5.63;85.27
76551;BME280;65393;53.160;18.170;2023-02-24T01:59:47;100316.47;;;5.63;85.25
76551;BME280;65393;53.160;18.170;2023-02-24T02:02:15;100317.73;;;5.62;85.23
76551;BME280;65393;53.160;18.170;2023-02-24T02:04:50;100312.63;;;5.61;85.12
76551;BME280;65393;53.160;18.170;2023-02-24T02:07:21;100308.42;;;5.60;85.07
76551;BME280;65393;53.160;18.170;2023-02-24T02:09:49;100304.92;;;5.60;85.27
76551;BME280;65393;53.160;18.170;2023-02-24T02:12:21;100302.34;;;5.59;85.37
76551;BME280;65393;53.160;18.170;2023-02-24T02:14:52;100300.59;;;5.58;85.70
76551;BME280;65393;53.160;18.170;2023-02-24T02:17:30;100297.45;;;5.57;85.73
76551;BME280;65393;53.160;18.170;2023-02-24T02:39:56;100283.88;;;5.50;86.42
76551;BME280;65393;53.160;18.170;2023-02-24T02:42:29;100284.90;;;5.51;86.49
76551;BME280;65393;53.160;18.170;2023-02-24T02:45:14;100278.21;;;5.50;86.08
76551;BME280;65393;53.160;18.170;2023-02-24T02:53:05;100274.41;;;5.48;86.21
76551;BME280;65393;53.160;18.170;2023-02-24T02:55:40;100274.10;;;5.47;86.25
76551;BME280;65393;53.160;18.170;2023-02-24T02:58:16;100271.27;;;5.47;86.61
76551;BME280;65393;53.160;18.170;2023-02-24T03:00:49;100268.62;;;5.48;86.43
76551;BME280;65393;53.160;18.170;2023-02-24T03:03:36;100270.55;;;5.48;86.64
76551;BME280;65393;53.160;18.170;2023-02-24T03:12:05;100263.35;;;5.48;86.30
76551;BME280;65393;53.160;18.170;2023-02-24T03:14:37;100256.64;;;5.48;86.22
76551;BME280;65393;53.160;18.170;2023-02-24T03:17:11;100256.45;;;5.49;86.24
76551;BME280;65393;53.160;18.170;2023-02-24T03:19:43;100256.46;;;5.48;86.31
76551;BME280;65393;53.160;18.170;2023-02-24T03:22:15;100256.10;;;5.49;86.70
76551;BME280;65393;53.160;18.170;2023-02-24T03:24:44;100253.59;;;5.50;86.30
76551;BME280;65393;53.160;18.170;2023-02-24T03:27:28;100251.48;;;5.50;86.49
76551;BME280;65393;53.160;18.170;2023-02-24T03:30:02;100250.42;;;5.50;86.53
76551;BME280;65393;53.160;18.170;2023-02-24T03:32:43;100247.23;;;5.50;86.38
76551;BME280;65393;53.160;18.170;2023-02-24T03:35:20;100241.48;;;5.49;86.61
76551;BME280;65393;53.160;18.170;2023-02-24T03:37:48;100236.85;;;5.51;86.69
76551;BME280;65393;53.160;18.170;2023-02-24T03:40:16;100239.85;;;5.50;86.92
76551;BME280;65393;53.160;18.170;2023-02-24T03:42:46;100234.55;;;5.51;86.78
76551;BME280;65393;53.160;18.170;2023-02-24T03:45:15;100237.20;;;5.51;86.97
76551;BME280;65393;53.160;18.170;2023-02-24T03:47:43;100227.91;;;5.50;86.89
76551;BME280;65393;53.160;18.170;2023-02-24T03:50:15;100225.42;;;5.50;87.02
76551;BME280;65393;53.160;18.170;2023-02-24T03:55:50;100220.00;;;5.49;86.88
76551;BME280;65393;53.160;18.170;2023-02-24T03:58:36;100219.30;;;5.49;86.53
76551;BME280;65393;53.160;18.170;2023-02-24T04:04:18;100217.23;;;5.48;86.95
76551;BME280;65393;53.160;18.170;2023-02-24T04:07:32;100211.95;;;5.48;86.82
76551;BME280;65393;53.160;18.170;2023-02-24T04:12:32;100206.34;;;5.47;86.61
76551;BME280;65393;53.160;18.170;2023-02-24T04:15:14;100203.35;;;5.47;86.93
76551;BME280;65393;53.160;18.170;2023-02-24T04:20:15;100197.59;;;5.45;86.66
76551;BME280;65393;53.160;18.170;2023-02-24T04:22:55;100190.91;;;5.44;86.68
76551;BME280;65393;53.160;18.170;2023-02-24T04:25:26;100193.93;;;5.43;86.64
76551;BME280;65393;53.160;18.170;2023-02-24T04:27:58;100194.14;;;5.42;86.78
76551;BME280;65393;53.160;18.170;2023-02-24T04:30:30;100190.84;;;5.40;86.62
76551;BME280;65393;53.160;18.170;2023-02-24T04:32:59;100187.16;;;5.39;86.95
76551;BME280;65393;53.160;18.170;2023-02-24T04:35:26;100186.80;;;5.40;86.62
76551;BME280;65393;53.160;18.170;2023-02-24T04:37:54;100189.98;;;5.39;86.79
76551;BME280;65393;53.160;18.170;2023-02-24T04:40:21;100186.30;;;5.39;86.76
76551;BME280;65393;53.160;18.170;2023-02-24T04:42:50;100183.17;;;5.38;86.66
76551;BME280;65393;53.160;18.170;2023-02-24T04:45:18;100181.23;;;5.38;86.55
76551;BME280;65393;53.160;18.170;2023-02-24T04:47:46;100180.34;;;5.39;86.57
76551;BME280;65393;53.160;18.170;2023-02-24T04:50:18;100177.52;;;5.39;86.48
76551;BME280;65393;53.160;18.170;2023-02-24T04:52:59;100175.63;;;5.37;86.32
76551;BME280;65393;53.160;18.170;2023-02-24T04:55:28;100175.79;;;5.37;86.56
76551;BME280;65393;53.160;18.170;2023-02-24T04:57:59;100173.70;;;5.36;86.68
76551;BME280;65393;53.160;18.170;2023-02-24T05:00:27;100170.70;;;5.37;86.91
76551;BME280;65393;53.160;18.170;2023-02-24T05:03:03;100165.94;;;5.37;86.87
76551;BME280;65393;53.160;18.170;2023-02-24T05:05:31;100160.33;;;5.37;87.28
76551;BME280;65393;53.160;18.170;2023-02-24T05:08:04;100161.39;;;5.36;86.95
76551;BME280;65393;53.160;18.170;2023-02-24T05:10:39;100155.24;;;5.36;86.64
76551;BME280;65393;53.160;18.170;2023-02-24T05:13:07;100150.87;;;5.35;86.68
76551;BME280;65393;53.160;18.170;2023-02-24T05:15:38;100151.07;;;5.34;86.90
76551;BME280;65393;53.160;18.170;2023-02-24T05:18:08;100147.18;;;5.34;86.79
76551;BME280;65393;53.160;18.170;2023-02-24T05:20:45;100144.37;;;5.34;86.65
76551;BME280;65393;53.160;18.170;2023-02-24T05:23:34;100145.06;;;5.34;87.26
76551;BME280;65393;53.160;18.170;2023-02-24T05:26:03;100143.13;;;5.35;86.67
76551;BME280;65393;53.160;18.170;2023-02-24T05:28:38;100144.52;;;5.35;86.79
76551;BME280;65393;53.160;18.170;2023-02-24T05:31:17;100141.85;;;5.36;86.80
76551;BME280;65393;53.160;18.170;2023-02-24T05:33:47;100138.00;;;5.36;86.95
76551;BME280;65393;53.160;18.170;2023-02-24T05:36:16;100134.84;;;5.35;86.90
76551;BME280;65393;53.160;18.170;2023-02-24T05:38:50;100135.38;;;5.35;86.39
76551;BME280;65393;53.160;18.170;2023-02-24T05:41:21;100135.73;;;5.36;86.76
76551;BME280;65393;53.160;18.170;2023-02-24T05:43:53;100131.85;;;5.35;86.91
76551;BME280;65393;53.160;18.170;2023-02-24T05:46:25;100129.36;;;5.36;86.69
76551;BME280;65393;53.160;18.170;2023-02-24T05:49:03;100131.09;;;5.38;86.62
76551;BME280;65393;53.160;18.170;2023-02-24T05:51:35;100130.86;;;5.39;86.80
76551;BME280;65393;53.160;18.170;2023-02-24T05:54:08;100128.71;;;5.40;86.68
76551;BME280;65393;53.160;18.170;2023-02-24T05:56:40;100126.44;;;5.40;86.67
76551;BME280;65393;53.160;18.170;2023-02-24T05:59:11;100123.26;;;5.41;86.74
76551;BME280;65393;53.160;18.170;2023-02-24T06:01:40;100122.39;;;5.40;86.81
76551;BME280;65393;53.160;18.170;2023-02-24T06:04:08;100121.66;;;5.41;86.85
76551;BME280;65393;53.160;18.170;2023-02-24T06:06:37;100123.23;;;5.41;87.06
76551;BME280;65393;53.160;18.170;2023-02-24T06:09:07;100117.25;;;5.41;87.00
76551;BME280;65393;53.160;18.170;2023-02-24T06:11:42;100119.89;;;5.41;87.13
76551;BME280;65393;53.160;18.170;2023-02-24T06:14:11;100118.30;;;5.41;87.04
76551;BME280;65393;53.160;18.170;2023-02-24T06:16:40;100118.30;;;5.41;87.27
76551;BME280;65393;53.160;18.170;2023-02-24T06:19:08;100115.02;;;5.39;86.91
76551;BME280;65393;53.160;18.170;2023-02-24T06:21:38;100117.55;;;5.37;87.05
76551;BME280;65393;53.160;18.170;2023-02-24T06:24:12;100114.22;;;5.37;87.48
76551;BME280;65393;53.160;18.170;2023-02-24T06:26:40;100111.29;;;5.34;87.59
76551;BME280;65393;53.160;18.170;2023-02-24T06:29:12;100123.02;;;5.30;87.58
76551;BME280;65393;53.160;18.170;2023-02-24T06:31:41;100111.78;;;5.22;87.48
76551;BME280;65393;53.160;18.170;2023-02-24T06:34:12;100122.52;;;5.14;87.87
76551;BME280;65393;53.160;18.170;2023-02-24T06:36:43;100118.38;;;5.05;88.45
76551;BME280;65393;53.160;18.170;2023-02-24T06:39:10;100117.41;;;5.00;87.84
76551;BME280;65393;53.160;18.170;2023-02-24T06:41:39;100115.10;;;4.95;87.58
76551;BME280;65393;53.160;18.170;2023-02-24T06:44:08;100114.17;;;4.90;87.63
76551;BME280;65393;53.160;18.170;2023-02-24T06:46:35;100110.10;;;4.84;86.69
76551;BME280;65393;53.160;18.170;2023-02-24T06:49:02;100106.83;;;4.81;86.82
76551;BME280;65393;53.160;18.170;2023-02-24T06:51:29;100105.84;;;4.78;86.99
76551;BME280;65393;53.160;18.170;2023-02-24T06:53:56;100106.95;;;4.77;86.88
76551;BME280;65393;53.160;18.170;2023-02-24T06:56:25;100101.89;;;4.75;86.74
76551;BME280;65393;53.160;18.170;2023-02-24T06:58:54;100104.92;;;4.73;86.55
76551;BME280;65393;53.160;18.170;2023-02-24T07:01:23;100102.86;;;4.70;86.74
76551;BME280;65393;53.160;18.170;2023-02-24T07:03:52;100101.46;;;4.70;86.79
76551;BME280;65393;53.160;18.170;2023-02-24T07:06:49;100101.27;;;4.71;86.74
76551;BME280;65393;53.160;18.170;2023-02-24T07:09:22;100102.88;;;4.70;86.53
76551;BME280;65393;53.160;18.170;2023-02-24T07:11:50;100101.17;;;4.68;86.71
76551;BME280;65393;53.160;18.170;2023-02-24T07:14:26;100103.34;;;4.67;86.38
76551;BME280;65393;53.160;18.170;2023-02-24T07:16:53;100096.68;;;4.65;86.75
76551;BME280;65393;53.160;18.170;2023-02-24T07:19:29;100096.17;;;4.64;86.66
76551;BME280;65393;53.160;18.170;2023-02-24T07:22:00;100094.96;;;4.63;86.33
76551;BME280;65393;53.160;18.170;2023-02-24T07:24:30;100094.65;;;4.62;86.47
76551;BME280;65393;53.160;18.170;2023-02-24T07:27:13;100093.50;;;4.59;86.49
76551;BME280;65393;53.160;18.170;2023-02-24T07:29:48;100089.39;;;4.54;86.50
76551;BME280;65393;53.160;18.170;2023-02-24T07:32:16;100084.84;;;4.53;86.35
76551;BME280;65393;53.160;18.170;2023-02-24T07:34:43;100086.84;;;4.50;86.61
76551;BME280;65393;53.160;18.170;2023-02-24T07:37:10;100084.95;;;4.48;86.72
76551;BME280;65393;53.160;18.170;2023-02-24T07:39:38;100086.95;;;4.46;86.70
76551;BME280;65393;53.160;18.170;2023-02-24T07:42:07;100085.79;;;4.42;87.21
76551;BME280;65393;53.160;18.170;2023-02-24T07:44:42;100090.59;;;4.40;87.03
76551;BME280;65393;53.160;18.170;2023-02-24T07:47:11;100090.89;;;4.35;86.85
76551;BME280;65393;53.160;18.170;2023-02-24T07:49:39;100092.23;;;4.29;86.89
76551;BME280;65393;53.160;18.170;2023-02-24T07:52:06;100090.94;;;4.17;85.95
76551;BME280;65393;53.160;18.170;2023-02-24T07:54:34;100093.15;;;4.04;85.62
76551;BME280;65393;53.160;18.170;2023-02-24T07:57:01;100088.27;;;3.95;85.30
76551;BME280;65393;53.160;18.170;2023-02-24T07:59:33;100100.30;;;3.82;85.17
76551;BME280;65393;53.160;18.170;2023-02-24T08:02:00;100095.38;;;3.74;84.38
76551;BME280;65393;53.160;18.170;2023-02-24T08:04:30;100095.22;;;3.63;83.00
76551;BME280;65393;53.160;18.170;2023-02-24T08:06:58;100100.72;;;3.51;81.54
76551;BME280;65393;53.160;18.170;2023-02-24T08:09:30;100093.88;;;3.42;81.73
76551;BME280;65393;53.160;18.170;2023-02-24T08:12:07;100091.02;;;3.36;81.90
76551;BME280;65393;53.160;18.170;2023-02-24T08:14:34;100088.59;;;3.35;82.12
76551;BME280;65393;53.160;18.170;2023-02-24T08:17:02;100081.54;;;3.36;82.03
76551;BME280;65393;53.160;18.170;2023-02-24T08:19:32;100082.70;;;3.40;82.52
76551;BME280;65393;53.160;18.170;2023-02-24T08:22:10;100073.88;;;3.44;81.13
76551;BME280;65393;53.160;18.170;2023-02-24T08:24:54;100068.88;;;3.47;81.78
76551;BME280;65393;53.160;18.170;2023-02-24T08:27:24;100070.27;;;3.48;80.97
76551;BME280;65393;53.160;18.170;2023-02-24T08:29:52;100073.55;;;3.51;80.99
76551;BME280;65393;53.160;18.170;2023-02-24T08:32:31;100073.03;;;3.50;79.79
76551;BME280;65393;53.160;18.170;2023-02-24T08:35:01;100069.42;;;3.46;78.97
76551;BME280;65393;53.160;18.170;2023-02-24T08:37:31;100063.66;;;3.45;79.68
76551;BME280;65393;53.160;18.170;2023-02-24T08:40:10;100062.65;;;3.44;78.39
76551;BME280;65393;53.160;18.170;2023-02-24T08:45:50;100057.91;;;3.44;78.85
76551;BME280;65393;53.160;18.170;2023-02-24T08:48:20;100057.02;;;3.44;77.68
76551;BME280;65393;53.160;18.170;2023-02-24T08:51:28;100059.50;;;3.42;76.94
76551;BME280;65393;53.160;18.170;2023-02-24T08:54:01;100053.33;;;3.45;77.66
76551;BME280;65393;53.160;18.170;2023-02-24T08:56:31;100060.19;;;3.44;76.33
76551;BME280;65393;53.160;18.170;2023-02-24T08:59:03;100049.10;;;3.45;76.44
76551;BME280;65393;53.160;18.170;2023-02-24T09:01:36;100051.09;;;3.42;75.75
76551;BME280;65393;53.160;18.170;2023-02-24T09:04:10;100047.21;;;3.43;76.05
76551;BME280;65393;53.160;18.170;2023-02-24T09:06:48;100049.66;;;3.44;75.42
76551;BME280;65393;53.160;18.170;2023-02-24T09:09:17;100046.71;;;3.50;75.91
76551;BME280;65393;53.160;18.170;2023-02-24T09:11:58;100047.19;;;3.53;75.49
76551;BME280;65393;53.160;18.170;2023-02-24T09:14:31;100036.08;;;3.56;75.26
76551;BME280;65393;53.160;18.170;2023-02-24T09:17:03;100029.10;;;3.62;75.54
76551;BME280;65393;53.160;18.170;2023-02-24T09:19:36;100028.05;;;3.70;76.33
76551;BME280;65393;53.160;18.170;2023-02-24T09:22:08;100026.13;;;3.78;76.25
76551;BME280;65393;53.160;18.170;2023-02-24T09:24:56;100019.70;;;3.84;76.36
76551;BME280;65393;53.160;18.170;2023-02-24T09:27:45;100017.08;;;3.83;76.02
76551;BME280;65393;53.160;18.170;2023-02-24T09:30:13;100013.30;;;3.79;75.63
76551;BME280;65393;53.160;18.170;2023-02-24T09:33:12;100015.18;;;3.73;75.81
76551;BME280;65393;53.160;18.170;2023-02-24T09:35:58;100008.77;;;3.68;74.86
76551;BME280;65393;53.160;18.170;2023-02-24T09:38:49;100002.74;;;3.72;76.15
76551;BME280;65393;53.160;18.170;2023-02-24T09:41:42;99997.63;;;3.74;75.19
76551;BME280;65393;53.160;18.170;2023-02-24T09:44:48;99994.12;;;3.74;75.71
76551;BME280;65393;53.160;18.170;2023-02-24T09:47:40;99990.26;;;3.74;75.70
76551;BME280;65393;53.160;18.170;2023-02-24T09:52:58;99994.59;;;3.67;75.06
76551;BME280;65393;53.160;18.170;2023-02-24T10:04:05;99979.23;;;3.64;76.19
76551;BME280;65393;53.160;18.170;2023-02-24T10:06:41;99980.63;;;3.64;75.66
76551;BME280;65393;53.160;18.170;2023-02-24T10:09:24;99980.36;;;3.67;76.15
76551;BME280;65393;53.160;18.170;2023-02-24T10:12:06;99977.29;;;3.72;76.28
76551;BME280;65393;53.160;18.170;2023-02-24T10:17:26;99967.66;;;3.71;75.47
76551;BME280;65393;53.160;18.170;2023-02-24T10:20:14;99962.24;;;3.70;75.51
76551;BME280;65393;53.160;18.170;2023-02-24T10:23:05;99956.08;;;3.71;75.56
76551;BME280;65393;53.160;18.170;2023-02-24T10:25:39;99955.73;;;3.71;75.28
76551;BME280;65393;53.160;18.170;2023-02-24T10:28:23;99952.19;;;3.73;75.47
76551;BME280;65393;53.160;18.170;2023-02-24T10:33:37;99938.87;;;3.79;74.44
76551;BME280;65393;53.160;18.170;2023-02-24T10:36:19;99933.50;;;3.76;74.55
76551;BME280;65393;53.160;18.170;2023-02-24T10:38:52;99932.53;;;3.80;74.69
76551;BME280;65393;53.160;18.170;2023-02-24T10:41:22;99932.05;;;3.78;74.71
76551;BME280;65393;53.160;18.170;2023-02-24T10:43:55;99936.43;;;3.79;74.06
76551;BME280;65393;53.160;18.170;2023-02-24T10:46:24;99938.33;;;3.80;73.54
76551;BME280;65393;53.160;18.170;2023-02-24T10:48:55;99928.45;;;3.75;72.36
76551;BME280;65393;53.160;18.170;2023-02-24T10:51:39;99921.44;;;3.75;72.97
76551;BME280;65393;53.160;18.170;2023-02-24T10:54:18;99918.88;;;3.72;72.19
76551;BME280;65393;53.160;18.170;2023-02-24T10:57:06;99913.93;;;3.72;71.91
76551;BME280;65393;53.160;18.170;2023-02-24T10:59:46;99906.89;;;3.74;72.26
76551;BME280;65393;53.160;18.170;2023-02-24T11:02:25;99895.77;;;3.76;72.52
76551;BME280;65393;53.160;18.170;2023-02-24T11:05:04;99884.58;;;3.82;71.91
76551;BME280;65393;53.160;18.170;2023-02-24T11:08:11;99886.80;;;3.85;71.64
76551;BME280;65393;53.160;18.170;2023-02-24T11:10:51;99875.11;;;3.88;71.16
76551;BME280;65393;53.160;18.170;2023-02-24T11:13:25;99866.48;;;3.90;70.58
76551;BME280;65393;53.160;18.170;2023-02-24T11:16:11;99865.17;;;3.93;70.72
76551;BME280;65393;53.160;18.170;2023-02-24T11:18:56;99869.78;;;3.91;70.46
76551;BME280;65393;53.160;18.170;2023-02-24T11:21:25;99871.42;;;3.88;70.40
76551;BME280;65393;53.160;18.170;2023-02-24T11:23:57;99864.40;;;3.88;70.61
76551;BME280;65393;53.160;18.170;2023-02-24T11:26:33;99866.95;;;3.86;70.63
76551;BME280;65393;53.160;18.170;2023-02-24T11:31:58;99855.72;;;3.78;71.31
76551;BME280;65393;53.160;18.170;2023-02-24T11:34:51;99855.34;;;3.71;70.96
76551;BME280;65393;53.160;18.170;2023-02-24T11:37:44;99853.37;;;3.65;71.41
76551;BME280;65393;53.160;18.170;2023-02-24T11:40:18;99841.08;;;3.58;71.05
76551;BME280;65393;53.160;18.170;2023-02-24T11:42:56;99837.73;;;3.58;72.09
76551;BME280;65393;53.160;18.170;2023-02-24T11:48:20;99825.02;;;3.69;71.34
76551;BME280;65393;53.160;18.170;2023-02-24T11:51:11;99821.10;;;3.73;71.17
76551;BME280;65393;53.160;18.170;2023-02-24T11:53:46;99813.39;;;3.72;70.40
76551;BME280;65393;53.160;18.170;2023-02-24T11:56:32;99811.25;;;3.66;69.81
76551;BME280;65393;53.160;18.170;2023-02-24T12:05:09;99806.07;;;3.63;70.43
76551;BME280;65393;53.160;18.170;2023-02-24T12:07:50;99804.89;;;3.60;69.78
76551;BME280;65393;53.160;18.170;2023-02-24T12:10:46;99805.58;;;3.54;69.66
76551;BME280;65393;53.160;18.170;2023-02-24T12:13:31;99811.14;;;3.49;70.13
76551;BME280;65393;53.160;18.170;2023-02-24T12:19:01;99817.38;;;3.53;69.61
76551;BME280;65393;53.160;18.170;2023-02-24T12:21:37;99806.63;;;3.47;68.86
76551;BME280;65393;53.160;18.170;2023-02-24T12:24:07;99799.50;;;3.45;69.37
76551;BME280;65393;53.160;18.170;2023-02-24T12:27:02;99794.95;;;3.44;69.04
76551;BME280;65393;53.160;18.170;2023-02-24T12:29:49;99790.63;;;3.48;69.75
76551;BME280;65393;53.160;18.170;2023-02-24T12:38:17;99778.06;;;3.54;67.49
76551;BME280;65393;53.160;18.170;2023-02-24T12:52:00;99762.25;;;3.46;67.45
76551;BME280;65393;53.160;18.170;2023-02-24T12:54:38;99763.16;;;3.46;66.76
76551;BME280;65393;53.160;18.170;2023-02-24T12:57:40;99757.92;;;3.45;66.92
76551;BME280;65393;53.160;18.170;2023-02-24T13:00:10;99760.30;;;3.47;67.83
76551;BME280;65393;53.160;18.170;2023-02-24T13:05:29;99743.85;;;3.53;66.83
76551;BME280;65393;53.160;18.170;2023-02-24T13:15:56;99726.65;;;3.66;67.58
76551;BME280;65393;53.160;18.170;2023-02-24T13:18:35;99729.58;;;3.69;67.26
76551;BME280;65393;53.160;18.170;2023-02-24T13:21:20;99723.93;;;3.70;67.24
76551;BME280;65393;53.160;18.170;2023-02-24T13:23:59;99719.17;;;3.71;67.01
76551;BME280;65393;53.160;18.170;2023-02-24T13:26:31;99711.98;;;3.71;67.00
76551;BME280;65393;53.160;18.170;2023-02-24T13:29:07;99708.60;;;3.74;67.35
76551;BME280;65393;53.160;18.170;2023-02-24T13:36:54;99699.79;;;3.67;67.21
76551;BME280;65393;53.160;18.170;2023-02-24T13:39:31;99700.43;;;3.63;67.08
76551;BME280;65393;53.160;18.170;2023-02-24T13:42:27;99691.39;;;3.60;67.39
76551;BME280;65393;53.160;18.170;2023-02-24T13:53:28;99674.77;;;3.65;67.65
76551;BME280;65393;53.160;18.170;2023-02-24T14:01:07;99668.41;;;3.74;67.93
76551;BME280;65393;53.160;18.170;2023-02-24T14:03:37;99668.59;;;3.73;67.66
76551;BME280;65393;53.160;18.170;2023-02-24T14:06:14;99662.77;;;3.74;68.13
76551;BME280;65393;53.160;18.170;2023-02-24T14:08:48;99660.08;;;3.77;68.25
76551;BME280;65393;53.160;18.170;2023-02-24T14:11:23;99655.02;;;3.75;68.02
76551;BME280;65393;53.160;18.170;2023-02-24T14:13:55;99652.75;;;3.75;67.77
76551;BME280;65393;53.160;18.170;2023-02-24T14:16:25;99652.31;;;3.77;68.03
76551;BME280;65393;53.160;18.170;2023-02-24T14:18:59;99648.77;;;3.79;68.00
76551;BME280;65393;53.160;18.170;2023-02-24T14:21:31;99644.30;;;3.82;68.02
76551;BME280;65393;53.160;18.170;2023-02-24T14:24:10;99640.50;;;3.86;67.93
76551;BME280;65393;53.160;18.170;2023-02-24T14:26:45;99634.55;;;3.92;67.84
76551;BME280;65393;53.160;18.170;2023-02-24T14:29:19;99630.22;;;3.96;67.30
76551;BME280;65393;53.160;18.170;2023-02-24T14:31:49;99627.27;;;4.01;67.43
76551;BME280;65393;53.160;18.170;2023-02-24T14:34:19;99626.09;;;4.05;67.22
76551;BME280;65393;53.160;18.170;2023-02-24T14:36:49;99616.23;;;4.06;66.94
76551;BME280;65393;53.160;18.170;2023-02-24T14:39:36;99613.75;;;4.06;66.55
76551;BME280;65393;53.160;18.170;2023-02-24T14:44:33;99602.64;;;4.02;66.28
76551;BME280;65393;53.160;18.170;2023-02-24T14:47:10;99601.06;;;4.02;66.67
76551;BME280;65393;53.160;18.170;2023-02-24T14:49:40;99600.19;;;4.02;67.08
76551;BME280;65393;53.160;18.170;2023-02-24T14:54:42;99594.23;;;4.07;67.19
76551;BME280;65393;53.160;18.170;2023-02-24T14:57:21;99584.95;;;4.07;66.01
76551;BME280;65393;53.160;18.170;2023-02-24T14:59:52;99582.45;;;4.02;65.71
76551;BME280;65393;53.160;18.170;2023-02-24T15:02:25;99574.07;;;4.01;65.17
76551;BME280;65393;53.160;18.170;2023-02-24T15:04:55;99574.85;;;3.98;64.37
76551;BME280;65393;53.160;18.170;2023-02-24T15:07:26;99569.52;;;3.95;65.05
76551;BME280;65393;53.160;18.170;2023-02-24T15:09:55;99566.05;;;3.93;64.79
76551;BME280;65393;53.160;18.170;2023-02-24T15:12:29;99561.36;;;3.91;64.63
76551;BME280;65393;53.160;18.170;2023-02-24T15:15:07;99555.67;;;3.94;65.52
76551;BME280;65393;53.160;18.170;2023-02-24T15:17:39;99557.68;;;3.97;65.32
76551;BME280;65393;53.160;18.170;2023-02-24T15:20:29;99552.23;;;3.97;64.94
76551;BME280;65393;53.160;18.170;2023-02-24T15:22:56;99545.34;;;3.93;64.37
76551;BME280;65393;53.160;18.170;2023-02-24T15:25:26;99544.73;;;3.90;64.77
76551;BME280;65393;53.160;18.170;2023-02-24T15:27:58;99545.95;;;3.90;65.00
76551;BME280;65393;53.160;18.170;2023-02-24T15:35:30;99535.80;;;3.88;65.26
76551;BME280;65393;53.160;18.170;2023-02-24T15:37:59;99527.12;;;3.86;64.22
76551;BME280;65393;53.160;18.170;2023-02-24T15:40:27;99527.63;;;3.87;64.95
76551;BME280;65393;53.160;18.170;2023-02-24T15:43:07;99524.53;;;3.85;64.80
76551;BME280;65393;53.160;18.170;2023-02-24T15:45:36;99521.27;;;3.82;64.88
76551;BME280;65393;53.160;18.170;2023-02-24T15:48:21;99516.75;;;3.80;65.33